createdAt,value
2023-03-25T00:03:55.183Z,964.66
2023-03-25T00:18:56.911Z,964.75
2023-03-25T00:33:58.666Z,964.65
2023-03-25T00:49:00.424Z,964.6
2023-03-25T01:04:02.227Z,964.59
2023-03-25T01:19:04.113Z,964.64
2023-03-25T01:34:05.826Z,964.68
2023-03-25T01:49:07.694Z,964.9
2023-03-25T02:04:09.456Z,964.86
2023-03-25T02:19:11.244Z,964.97
2023-03-25T02:34:12.966Z,965.06
2023-03-25T02:49:14.707Z,965.13
2023-03-25T03:04:16.410Z,965.26
2023-03-25T03:19:18.457Z,965.25
2023-03-25T03:34:20.267Z,965.4
2023-03-25T03:49:21.962Z,965.48
2023-03-25T04:04:23.708Z,965.56
2023-03-25T04:19:25.531Z,965.63
2023-03-25T04:34:27.324Z,965.8
2023-03-25T04:49:29.016Z,965.94
2023-03-25T05:04:30.778Z,965.98
2023-03-25T05:19:32.513Z,966.05
2023-03-25T05:34:34.288Z,966.09
2023-03-25T05:49:35.981Z,966.17
2023-03-25T06:04:37.743Z,966.18
2023-03-25T06:19:39.448Z,966.09
2023-03-25T06:34:41.210Z,966.09
2023-03-25T06:49:42.922Z,966.14
2023-03-25T07:04:44.706Z,966.14
2023-03-25T07:19:46.453Z,966.2
2023-03-25T07:34:48.193Z,966.33
2023-03-25T07:49:50.213Z,966.5
2023-03-25T08:04:51.917Z,966.69
2023-03-25T08:19:53.701Z,966.69
2023-03-25T08:34:55.452Z,966.66
2023-03-25T08:49:57.215Z,966.74
2023-03-25T09:04:58.989Z,966.72
2023-03-25T09:20:00.767Z,966.89
2023-03-25T09:35:02.540Z,966.94
2023-03-25T09:50:04.260Z,966.96
2023-03-25T10:05:06.060Z,966.98
2023-03-25T10:20:07.799Z,966.96
2023-03-25T10:35:09.495Z,967.01
2023-03-25T10:50:11.212Z,967.02
2023-03-25T11:05:12.937Z,967.03
2023-03-25T11:20:14.693Z,967.12
2023-03-25T11:35:16.443Z,967.29
2023-03-25T11:50:18.313Z,967.43
2023-03-25T12:05:20.094Z,967.49
2023-03-25T12:20:21.848Z,967.54
2023-03-25T12:35:23.630Z,967.6
2023-03-25T12:50:25.383Z,967.57
2023-03-25T13:05:27.138Z,967.57
2023-03-25T13:20:28.831Z,967.62
2023-03-25T13:35:30.588Z,967.72
2023-03-25T13:50:32.315Z,967.85
2023-03-25T14:05:34.124Z,967.85
2023-03-25T14:20:35.996Z,967.94
2023-03-25T14:35:37.711Z,968.04
2023-03-25T14:50:39.520Z,968.14
2023-03-25T15:05:41.370Z,968.13
2023-03-25T15:20:43.212Z,968.27
2023-03-25T15:35:44.972Z,968.3
2023-03-25T15:50:46.709Z,968.27
2023-03-25T16:05:48.444Z,968.32
2023-03-25T16:20:50.544Z,968.27
2023-03-25T16:35:52.625Z,968.24
2023-03-25T16:50:54.360Z,968.15
2023-03-25T17:05:56.129Z,968.11
2023-03-25T17:20:58.023Z,967.95
2023-03-25T17:35:59.782Z,967.93
2023-03-25T17:51:01.494Z,967.9
2023-03-25T18:06:03.237Z,967.84
2023-03-25T18:21:04.961Z,967.86
2023-03-25T18:36:06.677Z,967.7
2023-03-25T18:51:08.400Z,967.67
2023-03-25T19:06:10.134Z,967.59
2023-03-25T19:21:11.850Z,967.47
2023-03-25T19:36:13.604Z,967.37
2023-03-25T19:51:15.353Z,967.2
2023-03-25T20:06:17.051Z,967.14
2023-03-25T20:21:18.775Z,967.07
2023-03-25T20:36:20.494Z,966.96
2023-03-25T20:51:22.267Z,966.82
2023-03-25T21:06:26.608Z,966.71
2023-03-25T21:21:30.308Z,966.69
2023-03-25T21:36:32.009Z,966.61
2023-03-25T21:51:33.738Z,966.58
2023-03-25T22:06:35.460Z,966.57
2023-03-25T22:21:37.554Z,966.62
2023-03-25T22:36:39.439Z,966.56
2023-03-25T22:51:41.147Z,966.48
2023-03-25T23:06:45.288Z,966.38
2023-03-25T23:21:50.849Z,966.18
2023-03-25T23:36:52.577Z,966.12
2023-03-25T23:51:54.277Z,966.12
